Time;durP1;ratioP1;P1;durP2;ratioP2;P2;SDS_P1;SDS_P2;PMS_P1;PMS_P2;Temp;Humidity;BMP_temperature;BMP_pressure;BME280_temperature;BME280_humidity;BME280_pressure;Samples;Min_cycle;Max_cycle;Signal;HPM_P1;HPM_P2
2021/06/07 00:01:25;;;;;;;19.48;12.32;;;;;;;15.82;93.10;99200.59;4957741;29;20065;-70
2021/06/07 00:03:51;;;;;;;22.00;12.85;;;;;;;15.76;93.16;99187.88;4939619;29;20058;-70
2021/06/07 00:06:18;;;;;;;19.92;13.15;;;;;;;15.83;92.86;99191.38;4940601;29;20027;-70
2021/06/07 00:08:44;;;;;;;22.05;13.60;;;;;;;15.75;93.72;99192.50;4955789;29;20027;-70
2021/06/07 00:11:10;;;;;;;20.10;13.88;;;;;;;15.61;93.81;99180.03;4955864;29;20027;-70
2021/06/07 00:13:37;;;;;;;21.83;13.02;;;;;;;15.71;94.30;99195.91;4958082;28;20027;-69
2021/06/07 00:16:04;;;;;;;22.02;13.40;;;;;;;15.63;93.89;99188.00;4938713;29;20074;-69
2021/06/07 00:18:30;;;;;;;22.45;13.18;;;;;;;15.48;94.21;99167.41;4937939;29;20078;-70
2021/06/07 00:21:14;;;;;;;24.10;13.48;;;;;;;15.58;94.19;99180.47;4938946;29;20027;-70
2021/06/07 00:23:41;;;;;;;23.00;14.00;;;;;;;15.55;94.45;99178.22;4956223;29;20020;-70
2021/06/07 00:26:07;;;;;;;22.73;13.60;;;;;;;15.64;94.15;99197.84;4956011;29;20027;-70
2021/06/07 00:28:33;;;;;;;22.13;13.65;;;;;;;15.65;94.39;99205.81;4937748;29;20038;-71
2021/06/07 00:31:00;;;;;;;24.92;14.05;;;;;;;15.59;94.41;99186.75;4955410;29;20050;-70
2021/06/07 00:33:25;;;;;;;27.23;14.18;;;;;;;15.58;94.33;99191.38;4955557;28;20046;-70
2021/06/07 00:35:51;;;;;;;23.77;14.27;;;;;;;15.61;94.48;99190.09;4955611;29;20031;-70
2021/06/07 00:38:16;;;;;;;25.63;14.10;;;;;;;15.67;94.17;99191.94;4953532;28;20651;-70
2021/06/07 00:40:42;;;;;;;24.30;13.13;;;;;;;15.65;93.81;99188.59;4938173;29;20034;-69
2021/06/07 00:43:07;;;;;;;20.90;13.43;;;;;;;15.61;93.61;99185.47;4955438;29;20469;-69
2021/06/07 00:45:34;;;;;;;18.92;13.32;;;;;;;15.53;93.74;99183.06;4955667;29;20035;-70
2021/06/07 00:48:02;;;;;;;21.88;13.90;;;;;;;15.63;93.88;99190.72;4952024;28;20027;-70
2021/06/07 00:50:39;;;;;;;23.55;13.48;;;;;;;15.61;94.31;99190.09;4955700;29;20062;-69
2021/06/07 00:53:07;;;;;;;20.48;13.50;;;;;;;15.64;93.95;99197.84;4955012;29;20031;-70
2021/06/07 00:55:42;;;;;;;24.83;14.15;;;;;;;15.66;94.24;99195.72;4955248;29;20102;-70
2021/06/07 00:58:09;;;;;;;25.02;13.90;;;;;;;15.67;93.46;99198.22;4954275;28;20023;-69
2021/06/07 01:00:37;;;;;;;22.42;14.00;;;;;;;15.58;93.69;99177.75;4954825;29;20077;-70
2021/06/07 01:03:04;;;;;;;23.30;14.13;;;;;;;15.61;93.74;99187.38;4940612;29;20027;-70
2021/06/07 01:05:30;;;;;;;20.58;13.57;;;;;;;15.64;93.31;99193.22;4939932;29;20038;-69
2021/06/07 01:07:56;;;;;;;21.65;13.82;;;;;;;15.65;93.50;99186.72;4954039;29;20046;-70
2021/06/07 01:10:24;;;;;;;25.48;13.65;;;;;;;15.51;93.65;99175.13;4955140;28;20528;-70
2021/06/07 01:12:50;;;;;;;22.40;13.05;;;;;;;15.66;93.38;99184.81;4955157;29;20110;-70
2021/06/07 01:15:17;;;;;;;22.33;13.95;;;;;;;15.69;93.39;99193.41;4955461;29;20027;-70
2021/06/07 01:17:42;;;;;;;21.27;13.15;;;;;;;15.60;93.47;99170.19;4936812;29;20023;-69
2021/06/07 01:20:12;;;;;;;20.40;13.15;;;;;;;15.60;93.36;99172.09;4954109;29;20031;-70
2021/06/07 01:22:38;;;;;;;20.73;13.40;;;;;;;15.57;93.38;99171.47;4953990;29;20513;-70
2021/06/07 01:25:08;;;;;;;18.10;12.38;;;;;;;15.64;93.10;99170.56;4954435;29;20130;-70
2021/06/07 01:27:34;;;;;;;18.83;12.85;;;;;;;15.68;93.29;99182.69;4937239;29;20046;-70
2021/06/07 01:30:05;;;;;;;20.63;13.05;;;;;;;15.68;92.87;99175.34;4937468;29;20031;-70
2021/06/07 01:32:30;;;;;;;18.85;12.55;;;;;;;15.61;92.79;99171.84;4954571;28;20023;-70
2021/06/07 01:34:55;;;;;;;20.00;12.18;;;;;;;15.71;92.93;99177.63;4936844;29;20039;-70
2021/06/07 01:37:21;;;;;;;20.27;12.68;;;;;;;15.60;92.90;99155.72;4938112;29;20090;-70
2021/06/07 01:39:46;;;;;;;19.90;12.05;;;;;;;15.61;92.67;99154.66;4954913;28;20034;-70
2021/06/07 01:42:11;;;;;;;20.60;12.68;;;;;;;15.42;93.30;99140.19;4954907;29;20034;-70
2021/06/07 01:44:37;;;;;;;19.30;12.38;;;;;;;15.41;93.51;99153.00;4937034;29;20135;-69
2021/06/07 01:47:02;;;;;;;19.67;12.63;;;;;;;15.57;93.65;99170.66;4936388;29;20453;-70
2021/06/07 01:49:27;;;;;;;19.95;12.45;;;;;;;15.58;93.69;99164.13;4953799;29;20090;-68
2021/06/07 01:51:53;;;;;;;20.50;12.13;;;;;;;15.53;94.03;99158.50;4954360;29;20378;-69
2021/06/07 01:54:18;;;;;;;21.23;13.20;;;;;;;15.60;94.04;99164.72;4954368;29;20028;-68
2021/06/07 01:56:43;;;;;;;25.63;12.43;;;;;;;15.61;93.81;99158.19;4953303;28;20098;-67
2021/06/07 01:59:09;;;;;;;20.13;12.82;;;;;;;15.51;94.18;99160.63;4937155;29;20145;-68
2021/06/07 02:01:34;;;;;;;24.77;13.48;;;;;;;15.46;94.55;99152.31;4954128;29;20073;-68
2021/06/07 02:03:59;;;;;;;19.90;12.93;;;;;;;15.52;94.66;99154.94;4936734;29;20027;-69
2021/06/07 02:06:25;;;;;;;23.38;12.60;;;;;;;15.46;94.46;99141.41;4954042;29;20031;-68
2021/06/07 02:08:52;;;;;;;20.60;12.43;;;;;;;15.53;94.62;99150.34;4935331;29;20075;-68
2021/06/07 02:11:24;;;;;;;21.02;12.65;;;;;;;15.47;94.98;99149.34;4942666;29;20726;-68
2021/06/07 02:13:51;;;;;;;22.50;12.93;;;;;;;15.46;95.40;99157.78;4953872;29;20027;-70
2021/06/07 02:16:22;;;;;;;23.02;12.13;;;;;;;15.47;95.41;99153.97;4953982;29;20027;-68
2021/06/07 02:18:48;;;;;;;21.70;13.30;;;;;;;15.50;95.24;99157.06;4953780;29;20049;-69
2021/06/07 02:21:17;;;;;;;19.38;12.25;;;;;;;15.43;95.78;99153.59;4954260;29;20062;-68
2021/06/07 02:23:43;;;;;;;20.00;12.57;;;;;;;15.39;95.79;99157.00;4953156;29;20489;-68
2021/06/07 02:26:09;;;;;;;23.58;13.27;;;;;;;15.41;96.14;99152.16;4953197;29;20043;-68
2021/06/07 02:28:36;;;;;;;18.27;12.40;;;;;;;15.44;96.08;99159.88;4953749;28;20042;-68
2021/06/07 02:31:03;;;;;;;19.35;12.20;;;;;;;15.41;96.54;99150.25;5142514;23;20397;-68
2021/06/07 02:33:29;;;;;;;20.48;12.75;;;;;;;15.44;96.70;99166.16;4992853;28;20081;-69
2021/06/07 02:35:54;;;;;;;19.58;12.50;;;;;;;15.41;96.52;99155.72;4991577;28;20022;-67
2021/06/07 02:38:19;;;;;;;20.48;12.57;;;;;;;15.36;96.81;99163.75;4993028;28;20036;-69
2021/06/07 02:40:47;;;;;;;19.60;12.38;;;;;;;15.33;97.21;99164.19;4976940;28;20105;-68
2021/06/07 02:43:13;;;;;;;20.75;13.32;;;;;;;15.40;96.99;99164.94;4972574;28;20166;-68
2021/06/07 02:45:38;;;;;;;18.23;12.05;;;;;;;15.39;96.83;99163.28;4975384;28;20113;-69
2021/06/07 02:48:04;;;;;;;22.35;13.27;;;;;;;15.37;97.02;99165.41;4975091;28;20487;-69
2021/06/07 02:50:34;;;;;;;21.77;12.77;;;;;;;15.36;96.96;99165.63;4973532;28;20114;-69
2021/06/07 02:53:00;;;;;;;23.13;13.32;;;;;;;15.41;96.68;99161.16;4973345;28;20109;-70
2021/06/07 02:55:28;;;;;;;22.48;13.20;;;;;;;15.34;96.90;99154.94;4982438;28;20065;-69
2021/06/07 02:57:54;;;;;;;23.02;13.02;;;;;;;15.28;97.15;99158.59;4985166;28;20035;-70
2021/06/07 03:00:35;;;;;;;25.55;14.43;;;;;;;15.21;97.48;99146.91;4983284;28;20084;-70
2021/06/07 03:03:02;;;;;;;23.55;14.10;;;;;;;15.30;97.56;99161.91;4978398;28;20038;-69
2021/06/07 03:05:28;;;;;;;21.70;14.27;;;;;;;15.29;98.09;99160.25;4970702;28;20073;-70
2021/06/07 03:07:53;;;;;;;20.15;13.80;;;;;;;15.19;98.10;99160.75;4985711;28;20023;-71
2021/06/07 03:10:19;;;;;;;24.80;14.48;;;;;;;15.25;97.90;99175.41;4983959;28;20074;-69
2021/06/07 03:12:45;;;;;;;22.92;13.73;;;;;;;15.21;98.25;99161.34;4985286;28;20025;-71
2021/06/07 03:15:12;;;;;;;24.13;14.15;;;;;;;15.20;98.60;99169.78;4986382;28;20054;-70
2021/06/07 03:17:37;;;;;;;30.75;14.07;;;;;;;15.25;98.49;99167.22;4981870;28;20051;-70
2021/06/07 03:20:07;;;;;;;21.83;12.65;;;;;;;15.26;98.11;99164.25;4972740;28;20512;-72
2021/06/07 03:22:33;;;;;;;24.05;14.65;;;;;;;15.20;98.20;99162.44;4969736;28;20034;-75
2021/06/07 03:25:01;;;;;;;21.75;13.23;;;;;;;15.18;98.24;99169.16;4977024;28;20027;-79
2021/06/07 03:27:27;;;;;;;27.17;13.95;;;;;;;15.19;98.40;99170.81;4977670;28;20023;-77
2021/06/07 03:29:52;;;;;;;22.40;14.20;;;;;;;15.24;98.35;99173.72;4973404;28;20027;-75
2021/06/07 03:32:18;;;;;;;29.30;14.10;;;;;;;15.13;98.57;99159.75;4967495;28;20397;-76
2021/06/07 03:34:43;;;;;;;28.92;14.52;;;;;;;15.13;98.59;99154.31;4976876;28;20058;-75
2021/06/07 03:37:09;;;;;;;23.77;13.68;;;;;;;15.22;98.68;99173.94;4965282;28;20026;-72
2021/06/07 03:39:35;;;;;;;27.20;15.18;;;;;;;15.15;99.11;99166.88;4977703;28;20035;-76
2021/06/07 03:42:00;;;;;;;23.45;14.35;;;;;;;15.21;99.25;99163.25;4977306;28;20046;-76
2021/06/07 03:44:26;;;;;;;23.30;14.18;;;;;;;15.17;99.06;99162.03;4960183;28;20030;-78
2021/06/07 03:46:51;;;;;;;25.27;12.88;;;;;;;15.18;99.27;99166.44;4979339;28;20059;-76
2021/06/07 03:49:17;;;;;;;25.02;14.50;;;;;;;15.01;99.11;99147.09;4959734;28;20062;-76
2021/06/07 03:51:42;;;;;;;27.25;14.90;;;;;;;15.17;99.39;99172.94;4976777;28;20042;-77
2021/06/07 03:54:08;;;;;;;26.63;13.32;;;;;;;15.10;99.67;99165.66;4959738;28;20038;-79
2021/06/07 03:56:34;;;;;;;25.02;14.52;;;;;;;15.13;99.92;99173.38;4958946;28;20173;-72
2021/06/07 03:58:59;;;;;;;26.25;13.85;;;;;;;15.10;100.00;99164.84;4984809;28;20047;-74
2021/06/07 04:01:24;;;;;;;23.50;14.43;;;;;;;15.20;100.00;99169.78;4988796;28;20066;-70
2021/06/07 04:03:50;;;;;;;27.48;13.57;;;;;;;15.24;99.69;99168.25;4988274;28;20065;-72
2021/06/07 04:06:16;;;;;;;25.95;13.63;;;;;;;15.11;99.55;99152.84;4991146;28;20030;-75
2021/06/07 04:08:42;;;;;;;24.00;13.70;;;;;;;15.21;99.59;99166.81;4974390;28;20046;-75
2021/06/07 04:11:10;;;;;;;23.30;13.52;;;;;;;15.24;99.77;99162.81;4990620;28;20022;-70
2021/06/07 04:13:35;;;;;;;21.92;12.90;;;;;;;15.21;99.59;99149.63;4991069;28;20066;-74
2021/06/07 04:16:01;;;;;;;25.45;13.45;;;;;;;15.21;99.78;99149.63;4992008;28;20014;-75
2021/06/07 04:18:26;;;;;;;25.02;14.10;;;;;;;15.18;99.59;99150.91;4992250;28;20026;-73
2021/06/07 04:20:51;;;;;;;20.58;12.85;;;;;;;15.23;99.76;99158.41;4991350;28;20121;-73
2021/06/07 04:23:17;;;;;;;27.75;13.30;;;;;;;15.15;99.99;99156.00;4991639;28;20050;-72
2021/06/07 04:25:42;;;;;;;23.08;12.85;;;;;;;15.26;100.00;99163.41;4991116;28;20031;-71
2021/06/07 04:28:07;;;;;;;22.13;12.40;;;;;;;15.26;100.00;99166.97;4986990;28;20037;-72
2021/06/07 04:30:33;;;;;;;25.10;12.18;;;;;;;15.33;99.96;99169.66;4984856;28;20432;-72
2021/06/07 04:33:00;;;;;;;26.50;12.50;;;;;;;15.25;99.92;99162.59;4975109;28;20026;-73
2021/06/07 04:35:26;;;;;;;22.27;12.10;;;;;;;15.38;99.95;99172.53;4969538;28;20533;-71
2021/06/07 04:37:53;;;;;;;23.55;11.98;;;;;;;15.35;99.80;99172.97;4964364;28;20117;-76
2021/06/07 04:40:44;;;;;;;19.73;11.88;;;;;;;15.43;99.70;99169.97;4969781;28;20026;-72
2021/06/07 04:43:12;;;;;;;20.95;11.07;;;;;;;15.44;99.54;99177.06;4954213;28;20122;-69
2021/06/07 04:45:39;;;;;;;19.05;12.18;;;;;;;15.45;99.48;99172.44;4975315;28;20023;-71
2021/06/07 04:48:05;;;;;;;21.02;11.73;;;;;;;15.46;98.93;99174.97;4971975;28;20042;-68
2021/06/07 04:50:33;;;;;;;27.75;12.93;;;;;;;15.43;99.10;99169.09;4973012;28;20054;-68
2021/06/07 04:55:30;;;;;;;22.95;12.65;;;;;;;15.50;98.79;99167.97;4974534;28;20070;-68
2021/06/07 04:57:57;;;;;;;17.42;11.13;;;;;;;15.64;98.61;99165.09;4972699;28;20118;-66
2021/06/07 05:00:25;;;;;;;21.45;11.32;;;;;;;15.56;97.79;99164.38;4971683;28;20453;-67
2021/06/07 05:02:50;;;;;;;20.70;10.90;;;;;;;15.52;98.25;99165.88;4970960;28;20026;-66
2021/06/07 05:05:17;;;;;;;18.42;11.68;;;;;;;15.49;98.57;99166.31;4975163;28;20030;-67
2021/06/07 05:07:43;;;;;;;20.13;11.35;;;;;;;15.56;98.70;99164.38;4973337;28;20034;-66
2021/06/07 05:10:09;;;;;;;20.65;11.40;;;;;;;15.63;98.40;99169.72;4967386;28;20038;-65
2021/06/07 05:12:35;;;;;;;17.65;11.10;;;;;;;15.63;98.14;99169.72;4955916;28;20027;-66
2021/06/07 05:15:01;;;;;;;19.45;11.68;;;;;;;15.61;98.44;99160.94;4971060;28;20077;-65
2021/06/07 05:17:26;;;;;;;22.65;11.25;;;;;;;15.69;98.03;99166.13;4971431;28;20110;-67
2021/06/07 05:19:52;;;;;;;23.92;11.25;;;;;;;15.71;98.02;99154.97;4959026;28;20029;-75
2021/06/07 05:22:17;;;;;;;23.02;11.75;;;;;;;15.75;97.62;99156.22;4958091;28;20484;-70
2021/06/07 05:24:43;;;;;;;19.73;10.95;;;;;;;15.83;97.66;99164.09;4991729;28;20041;-70
2021/06/07 05:27:10;;;;;;;21.25;11.80;;;;;;;15.98;97.02;99169.97;5000618;28;20033;-70
2021/06/07 05:29:36;;;;;;;18.85;10.85;;;;;;;15.95;96.38;99173.13;4981855;28;20400;-77
2021/06/07 05:32:01;;;;;;;19.55;11.55;;;;;;;15.94;96.52;99159.75;4964055;28;20022;-76
2021/06/07 05:34:27;;;;;;;19.52;12.25;;;;;;;16.10;95.74;99167.28;4963837;28;20085;-72
2021/06/07 05:36:52;;;;;;;19.95;10.70;;;;;;;16.17;95.18;99167.22;4980036;28;20023;-71
2021/06/07 05:39:19;;;;;;;20.33;10.52;;;;;;;16.24;94.71;99176.13;4986831;28;20058;-71
2021/06/07 05:41:46;;;;;;;21.88;10.35;;;;;;;16.22;94.40;99156.44;4982396;28;20029;-75
2021/06/07 05:44:11;;;;;;;18.23;10.48;;;;;;;16.34;94.05;99179.13;4985082;28;20045;-72
2021/06/07 05:46:37;;;;;;;22.15;12.38;;;;;;;16.19;94.24;99167.78;4988709;28;20019;-73
2021/06/07 05:49:02;;;;;;;18.65;10.75;;;;;;;16.17;94.66;99162.59;4986970;28;20031;-75
2021/06/07 05:51:28;;;;;;;18.95;11.90;;;;;;;16.24;94.77;99178.03;4978442;28;20094;-72
2021/06/07 05:53:53;;;;;;;23.75;11.82;;;;;;;16.27;94.40;99174.84;4982170;28;20094;-74
2021/06/07 05:56:18;;;;;;;20.27;11.82;;;;;;;16.19;94.10;99175.97;4982911;28;20068;-71
2021/06/07 05:58:43;;;;;;;26.10;12.82;;;;;;;16.30;94.16;99191.59;4978475;28;20033;-73
2021/06/07 06:01:09;;;;;;;18.20;10.55;;;;;;;16.32;94.15;99185.91;4958373;28;20023;-75
2021/06/07 06:03:34;;;;;;;18.52;11.07;;;;;;;16.43;94.00;99185.94;4955566;28;20023;-69
2021/06/07 06:05:59;;;;;;;21.98;11.05;;;;;;;16.19;94.11;99178.72;4974536;28;20029;-69
2021/06/07 06:08:25;;;;;;;23.70;12.50;;;;;;;16.26;94.59;99195.03;4974604;28;20027;-75
2021/06/07 06:10:50;;;;;;;20.00;10.90;;;;;;;16.23;94.99;99176.38;4974479;28;20031;-75
2021/06/07 06:13:15;;;;;;;24.45;12.18;;;;;;;16.23;94.54;99185.41;4972963;28;20419;-78
2021/06/07 06:15:41;;;;;;;17.80;11.27;;;;;;;16.32;94.61;99188.63;4955288;28;20051;-72
2021/06/07 06:18:06;;;;;;;22.73;11.35;;;;;;;16.34;94.62;99198.25;4948331;28;20042;-75
2021/06/07 06:20:33;;;;;;;22.27;12.77;;;;;;;16.31;94.02;99176.03;4967406;28;20097;-74
2021/06/07 06:22:59;;;;;;;18.17;10.30;;;;;;;16.38;94.24;99179.53;4972471;28;20586;-74
2021/06/07 06:25:24;;;;;;;25.00;11.38;;;;;;;16.44;94.29;99187.59;4973179;28;20027;-72
2021/06/07 06:27:50;;;;;;;18.55;10.68;;;;;;;16.65;94.10;99186.25;4956535;28;20037;-76
2021/06/07 06:30:22;;;;;;;22.58;11.25;;;;;;;16.69;93.40;99194.84;4954631;28;20499;-75
2021/06/07 06:32:51;;;;;;;19.50;11.48;;;;;;;16.68;92.78;99182.22;4970173;28;20536;-73
2021/06/07 06:35:17;;;;;;;22.00;11.25;;;;;;;16.82;92.85;99191.91;4956168;28;20031;-74
2021/06/07 06:37:44;;;;;;;17.38;10.75;;;;;;;16.88;92.21;99186.59;4958394;28;20030;-74
2021/06/07 06:40:11;;;;;;;20.92;11.25;;;;;;;16.84;92.69;99178.81;4973072;28;20105;-74
2021/06/07 06:42:39;;;;;;;17.58;10.80;;;;;;;16.86;91.41;99197.75;4973018;28;20053;-73
2021/06/07 06:45:05;;;;;;;22.38;11.60;;;;;;;16.75;92.15;99199.34;4956630;28;20029;-74
2021/06/07 06:47:31;;;;;;;20.92;11.90;;;;;;;16.73;92.42;99197.91;4961093;28;20031;-74
2021/06/07 06:49:56;;;;;;;22.65;12.15;;;;;;;16.75;93.03;99210.28;4965957;28;20057;-74
2021/06/07 06:52:21;;;;;;;20.60;11.48;;;;;;;16.62;93.06;99202.28;4973738;28;20065;-74
2021/06/07 06:54:47;;;;;;;19.75;11.60;;;;;;;16.63;93.09;99209.41;4973371;28;20480;-74
2021/06/07 06:57:12;;;;;;;19.20;11.85;;;;;;;16.69;92.92;99205.75;4956206;28;20054;-74
2021/06/07 06:59:37;;;;;;;19.13;11.13;;;;;;;16.69;92.75;99211.22;4974194;28;20396;-72
2021/06/07 07:02:03;;;;;;;19.92;11.55;;;;;;;16.72;93.21;99210.75;4976971;28;20034;-72
2021/06/07 07:04:28;;;;;;;21.55;10.30;;;;;;;16.72;93.32;99216.22;4976509;28;20033;-72
2021/06/07 07:06:53;;;;;;;19.45;10.40;;;;;;;16.70;93.46;99220.25;4977017;28;20038;-72
2021/06/07 07:09:19;;;;;;;17.60;11.48;;;;;;;16.62;93.64;99210.47;4976927;28;20022;-72
2021/06/07 07:11:44;;;;;;;19.40;10.27;;;;;;;16.67;93.61;99218.81;4976970;28;20045;-72
2021/06/07 07:14:09;;;;;;;19.38;10.52;;;;;;;16.78;93.10;99219.94;4977051;28;20086;-72
2021/06/07 07:16:35;;;;;;;16.55;10.90;;;;;;;16.85;92.50;99215.22;4977218;28;20035;-72
2021/06/07 07:19:00;;;;;;;16.75;10.88;;;;;;;16.81;92.12;99206.63;4975845;28;20050;-74
2021/06/07 07:21:25;;;;;;;16.40;10.23;;;;;;;16.97;91.55;99213.31;4976990;28;20488;-74
2021/06/07 07:23:51;;;;;;;15.32;9.32;;;;;;;17.02;91.53;99201.69;4976875;28;20033;-73
2021/06/07 07:26:16;;;;;;;14.70;10.07;;;;;;;17.25;91.15;99215.38;4978022;28;20031;-74
2021/06/07 07:28:42;;;;;;;15.80;9.88;;;;;;;17.30;90.61;99211.94;4976600;28;20066;-74
2021/06/07 07:31:08;;;;;;;16.65;9.82;;;;;;;17.31;90.57;99217.16;4976612;28;20596;-74
2021/06/07 07:33:37;;;;;;;16.08;10.35;;;;;;;17.36;90.57;99210.16;4976877;28;20039;-73
2021/06/07 07:36:05;;;;;;;16.60;10.20;;;;;;;17.33;90.82;99216.09;4976580;28;20018;-75
2021/06/07 07:38:30;;;;;;;14.65;9.77;;;;;;;17.34;89.72;99206.81;4959854;28;20114;-75
2021/06/07 07:40:56;;;;;;;16.73;10.13;;;;;;;17.38;89.69;99211.59;4962231;28;20508;-75
2021/06/07 07:43:21;;;;;;;16.98;11.05;;;;;;;17.37;89.18;99220.88;4977506;28;20081;-76
2021/06/07 07:45:46;;;;;;;14.20;9.70;;;;;;;17.33;89.77;99211.47;4964231;29;20015;-75
2021/06/07 07:48:12;;;;;;;14.95;10.13;;;;;;;17.40;90.25;99227.78;4966469;29;20537;-75
2021/06/07 07:50:38;;;;;;;15.38;10.20;;;;;;;17.42;89.86;99215.53;4980099;28;20029;-74
2021/06/07 07:53:04;;;;;;;15.65;9.73;;;;;;;17.58;89.73;99222.19;4986681;28;20034;-74
2021/06/07 07:55:31;;;;;;;17.65;10.65;;;;;;;17.71;89.41;99213.72;4971982;28;20050;-74
2021/06/07 07:57:59;;;;;;;17.15;10.30;;;;;;;17.65;88.93;99222.88;4981074;28;20062;-73
2021/06/07 08:00:29;;;;;;;15.63;10.40;;;;;;;17.80;88.78;99225.16;4988075;28;20560;-74
2021/06/07 08:02:54;;;;;;;17.65;10.32;;;;;;;17.83;87.69;99216.44;4970502;28;20033;-74
2021/06/07 08:05:20;;;;;;;15.15;9.63;;;;;;;17.97;87.56;99225.22;4969733;28;20014;-74
2021/06/07 08:07:46;;;;;;;20.50;11.45;;;;;;;17.88;88.07;99202.88;4986365;28;20093;-73
2021/06/07 08:10:12;;;;;;;20.85;12.02;;;;;;;17.84;87.33;99217.28;4976347;28;20023;-71
2021/06/07 08:12:38;;;;;;;18.73;11.23;;;;;;;17.83;87.85;99223.84;4965961;28;20057;-71
2021/06/07 08:15:05;;;;;;;17.75;10.93;;;;;;;17.65;88.15;99203.72;4971876;28;20094;-75
2021/06/07 08:17:31;;;;;;;21.50;12.27;;;;;;;17.70;87.97;99214.78;4989799;28;20090;-75
2021/06/07 08:19:58;;;;;;;21.08;11.73;;;;;;;17.90;88.28;99219.91;4987642;28;20476;-76
2021/06/07 08:22:25;;;;;;;20.92;12.40;;;;;;;17.84;87.62;99211.81;4976502;28;20030;-76
2021/06/07 08:24:50;;;;;;;18.92;11.65;;;;;;;17.84;87.77;99222.75;4966526;28;20026;-73
2021/06/07 08:27:16;;;;;;;24.33;13.43;;;;;;;17.76;88.72;99215.72;4982046;28;20121;-73
2021/06/07 08:29:41;;;;;;;20.27;12.23;;;;;;;18.07;87.62;99211.75;5023814;23;20026;-70
2021/06/07 08:32:07;;;;;;;18.67;12.65;;;;;;;18.07;86.54;99184.38;4981685;28;20377;-69
2021/06/07 08:34:33;;;;;;;25.63;13.18;;;;;;;18.19;86.67;99217.22;4987622;28;20121;-72
2021/06/07 08:36:59;;;;;;;23.58;13.20;;;;;;;18.31;85.98;99206.19;4988363;28;20022;-66
2021/06/07 08:39:24;;;;;;;20.15;12.55;;;;;;;18.24;85.70;99205.53;4993744;28;20400;-70
2021/06/07 08:41:50;;;;;;;22.90;13.18;;;;;;;18.26;85.93;99225.28;4973929;28;20033;-72
2021/06/07 08:44:16;;;;;;;20.95;12.88;;;;;;;18.08;86.04;99207.13;4975421;28;20035;-69
2021/06/07 08:46:44;;;;;;;20.52;12.10;;;;;;;18.15;86.19;99203.16;4975267;28;20627;-74
2021/06/07 08:49:09;;;;;;;20.75;12.93;;;;;;;18.32;85.75;99189.53;4958244;28;20113;-71
2021/06/07 08:51:34;;;;;;;19.70;12.88;;;;;;;18.68;85.70;99216.75;4974891;28;20105;-68
2021/06/07 08:54:00;;;;;;;22.52;13.68;;;;;;;18.75;84.22;99212.00;4957120;28;20416;-68
2021/06/07 08:56:25;;;;;;;23.50;12.88;;;;;;;18.68;83.98;99205.78;4957763;28;20472;-72
2021/06/07 08:58:51;;;;;;;26.10;13.43;;;;;;;18.79;85.08;99219.47;4956219;28;20034;-65
2021/06/07 09:01:17;;;;;;;23.02;14.00;;;;;;;18.95;84.47;99226.06;4975185;28;20046;-70
2021/06/07 09:03:43;;;;;;;19.30;12.43;;;;;;;19.05;84.13;99226.25;4958231;28;20531;-71
2021/06/07 09:06:09;;;;;;;20.77;13.55;;;;;;;18.72;83.92;99199.59;4974794;28;20541;-70
2021/06/07 09:08:39;;;;;;;23.88;13.05;;;;;;;18.79;84.82;99224.97;4956739;28;20042;-66
2021/06/07 09:11:14;;;;;;;22.00;12.75;;;;;;;18.76;84.63;99216.41;4974256;28;20575;-73
2021/06/07 09:13:41;;;;;;;23.30;13.88;;;;;;;18.82;84.05;99218.16;4960614;28;20057;-71
2021/06/07 09:16:09;;;;;;;23.88;14.30;;;;;;;18.86;84.09;99229.44;4974005;28;20477;-67
2021/06/07 09:18:41;;;;;;;21.95;13.52;;;;;;;18.82;84.21;99224.47;4962499;28;20035;-71
2021/06/07 09:21:12;;;;;;;20.10;12.93;;;;;;;18.70;84.84;99228.31;4969201;28;20065;-72
2021/06/07 09:23:45;;;;;;;23.02;14.93;;;;;;;18.48;85.01;99212.56;4974935;28;20126;-70
2021/06/07 09:26:24;;;;;;;24.77;14.65;;;;;;;18.65;84.87;99223.56;4974053;28;20027;-70
2021/06/07 09:28:54;;;;;;;27.90;15.07;;;;;;;18.85;84.20;99212.19;4974036;28;20037;-70
2021/06/07 09:31:38;;;;;;;24.25;13.40;;;;;;;19.12;83.09;99220.59;4972305;28;20081;-73
2021/06/07 09:34:08;;;;;;;22.58;14.02;;;;;;;19.27;82.05;99209.84;4970425;28;20094;-73
2021/06/07 09:36:36;;;;;;;22.25;14.85;;;;;;;19.45;81.48;99213.44;4973731;28;20019;-67
2021/06/07 09:39:01;;;;;;;27.33;14.65;;;;;;;19.57;81.93;99218.81;4971307;28;20030;-71
2021/06/07 09:41:30;;;;;;;22.23;14.13;;;;;;;20.08;79.71;99225.03;4965454;28;20046;-73
2021/06/07 09:44:02;;;;;;;;;;;;;;;20.17;78.93;99225.41;4975155;28;20030;-73
2021/06/07 09:46:31;;;;;;;24.52;14.82;;;;;;;20.22;78.99;99226.31;4974074;28;19983;-75
2021/06/07 09:49:05;;;;;;;22.50;13.80;;;;;;;20.17;78.08;99226.25;4969513;28;20057;-74
2021/06/07 09:51:31;;;;;;;26.05;14.10;;;;;;;19.92;79.27;99222.09;4973227;28;20027;-73
2021/06/07 09:53:56;;;;;;;23.33;14.90;;;;;;;19.80;79.68;99207.63;4973492;28;20477;-72
2021/06/07 09:56:23;;;;;;;27.30;15.25;;;;;;;19.92;79.37;99222.09;4973994;28;20113;-70
2021/06/07 09:58:49;;;;;;;22.48;13.20;;;;;;;20.15;78.33;99225.69;4956453;28;20551;-76
2021/06/07 10:01:20;;;;;;;24.60;14.30;;;;;;;20.17;78.67;99222.66;4973579;28;20030;-70
2021/06/07 10:03:56;;;;;;;23.73;14.02;;;;;;;20.08;78.60;99225.88;4973635;28;20038;-70
2021/06/07 10:06:33;;;;;;;25.02;14.52;;;;;;;20.16;78.30;99213.59;4972708;28;20035;-70
2021/06/07 10:09:00;;;;;;;23.33;13.23;;;;;;;20.01;79.02;99214.22;4954733;29;20111;-71
2021/06/07 10:11:40;;;;;;;24.63;13.82;;;;;;;19.85;79.25;99226.94;4948097;28;20507;-70
2021/06/07 10:14:19;;;;;;;25.27;14.30;;;;;;;20.02;78.68;99229.66;4955481;28;20058;-74
2021/06/07 10:17:00;;;;;;;25.58;15.85;;;;;;;19.92;79.21;99224.00;4955444;28;20047;-72
2021/06/07 10:19:34;;;;;;;22.70;14.50;;;;;;;19.81;79.60;99219.47;4972081;28;20031;-65
2021/06/07 10:22:01;;;;;;;28.52;14.10;;;;;;;19.85;79.60;99221.44;4973033;28;20554;-64
2021/06/07 10:24:27;;;;;;;24.80;14.43;;;;;;;20.01;78.95;99225.22;4973303;28;20041;-64
2021/06/07 10:26:53;;;;;;;26.60;15.43;;;;;;;20.41;77.62;99220.47;4971324;28;20106;-64
2021/06/07 10:29:19;;;;;;;22.50;14.40;;;;;;;20.77;76.56;99227.22;4970703;28;20559;-64
2021/06/07 10:31:45;;;;;;;25.35;16.25;;;;;;;20.99;74.39;99216.16;4971768;28;20408;-64
2021/06/07 10:34:11;;;;;;;26.10;14.98;;;;;;;20.84;75.87;99216.03;4973132;28;20023;-64
2021/06/07 10:36:51;;;;;;;25.95;14.60;;;;;;;20.74;76.11;99220.31;4973138;28;20522;-64
2021/06/07 10:39:17;;;;;;;26.58;16.23;;;;;;;20.64;76.39;99222.13;4967798;28;20389;-64
2021/06/07 10:42:07;;;;;;;31.13;16.67;;;;;;;20.60;76.22;99218.25;4969396;28;20065;-64
2021/06/07 10:44:41;;;;;;;26.52;15.43;;;;;;;20.88;75.79;99219.91;4964027;28;20073;-64
2021/06/07 10:47:13;;;;;;;23.98;14.07;;;;;;;20.87;75.38;99213.56;4952742;28;20045;-64
2021/06/07 10:49:58;;;;;;;27.42;16.52;;;;;;;20.93;74.74;99215.31;4968872;28;20027;-64
2021/06/07 10:52:29;;;;;;;24.92;15.70;;;;;;;21.18;73.37;99211.91;4969204;28;20031;-64
2021/06/07 10:54:55;;;;;;;32.63;17.25;;;;;;;21.15;73.60;99215.19;4969503;28;20134;-64
2021/06/07 10:57:26;;;;;;;26.30;15.75;;;;;;;21.96;71.51;99210.53;4969167;28;20042;-65
2021/06/07 11:00:11;;;;;;;25.38;15.00;;;;;;;22.41;69.75;99209.91;4968761;28;20055;-65
2021/06/07 11:02:40;;;;;;;24.30;15.25;;;;;;;22.90;68.89;99220.50;4967889;28;20078;-66
2021/06/07 11:05:16;;;;;;;24.25;15.95;;;;;;;23.16;68.63;99217.75;4969807;28;20042;-67
2021/06/07 11:07:44;;;;;;;24.73;15.45;;;;;;;23.16;66.94;99206.72;4969179;28;20038;-65
2021/06/07 11:10:25;;;;;;;26.92;14.93;;;;;;;23.24;65.89;99213.63;4971683;28;20038;-66
2021/06/07 11:12:53;;;;;;;27.60;15.35;;;;;;;23.10;65.86;99216.13;4969874;28;20142;-69
2021/06/07 11:15:22;;;;;;;22.73;14.25;;;;;;;22.61;67.49;99200.00;4968900;28;20027;-66
2021/06/07 11:17:49;;;;;;;23.80;14.30;;;;;;;23.03;67.31;99207.28;4969918;28;20042;-66
2021/06/07 11:20:31;;;;;;;21.50;15.50;;;;;;;23.17;65.92;99202.88;4970194;28;20628;-65